createdAt,value
2019-02-03T00:01:14.250Z,2.40
2019-02-03T00:03:40.642Z,2.40
2019-02-03T00:06:07.066Z,2.30
2019-02-03T00:08:33.381Z,2.30
2019-02-03T00:10:59.726Z,2.40
2019-02-03T00:13:25.934Z,2.30
2019-02-03T00:15:52.138Z,2.40
2019-02-03T00:18:18.358Z,2.50
2019-02-03T00:20:44.567Z,2.50
2019-02-03T00:23:10.795Z,2.50
2019-02-03T00:25:36.991Z,2.50
2019-02-03T00:28:03.315Z,2.50
2019-02-03T00:30:29.643Z,2.50
2019-02-03T00:32:55.860Z,2.60
2019-02-03T00:35:22.074Z,2.60
2019-02-03T00:37:48.324Z,2.60
2019-02-03T00:40:14.991Z,2.60
2019-02-03T00:42:41.348Z,2.50
2019-02-03T00:45:10.559Z,2.50
2019-02-03T00:47:36.757Z,2.50
2019-02-03T00:50:09.470Z,2.40
2019-02-03T00:52:36.159Z,2.40
2019-02-03T00:55:05.390Z,2.30
2019-02-03T00:57:32.458Z,2.40
2019-02-03T00:59:58.819Z,2.50
2019-02-03T01:02:25.517Z,2.50
2019-02-03T01:04:52.071Z,2.50
2019-02-03T01:07:27.178Z,2.50
2019-02-03T01:09:46.499Z,2.60
2019-02-03T01:12:12.699Z,2.70
2019-02-03T01:14:38.943Z,2.70
2019-02-03T01:17:05.249Z,2.60
2019-02-03T01:19:31.711Z,2.60
2019-02-03T01:21:57.927Z,2.70
2019-02-03T01:24:24.131Z,2.60
2019-02-03T01:26:50.358Z,2.60
2019-02-03T01:29:16.571Z,2.60
2019-02-03T01:31:42.807Z,2.60
2019-02-03T01:34:09.111Z,2.60
2019-02-03T01:36:35.330Z,2.60
2019-02-03T01:39:04.046Z,2.50
2019-02-03T01:41:30.252Z,2.50
2019-02-03T01:43:56.574Z,2.60
2019-02-03T01:46:22.878Z,2.60
2019-02-03T01:48:49.203Z,2.70
2019-02-03T01:51:15.406Z,2.60
2019-02-03T01:53:41.631Z,2.60
2019-02-03T01:56:08.139Z,2.50
2019-02-03T01:58:34.458Z,2.50
2019-02-03T02:01:01.069Z,2.50
2019-02-03T02:03:27.285Z,2.50
2019-02-03T02:05:53.487Z,2.50
2019-02-03T02:08:39.670Z,2.50
2019-02-03T02:11:05.887Z,2.60
2019-02-03T02:13:32.094Z,2.40
2019-02-03T02:15:58.327Z,2.40
2019-02-03T02:18:24.646Z,2.40
2019-02-03T02:20:50.971Z,2.40
2019-02-03T02:23:17.195Z,2.30
2019-02-03T02:25:43.695Z,2.20
2019-02-03T02:28:09.902Z,2.20
2019-02-03T02:30:39.160Z,2.20
2019-02-03T02:33:06.270Z,2.20
2019-02-03T02:35:32.632Z,2.10
2019-02-03T02:38:06.398Z,2.10
2019-02-03T02:40:27.064Z,2.00
2019-02-03T02:42:54.187Z,2.00
2019-02-03T02:45:20.846Z,2.10
2019-02-03T02:47:47.171Z,2.00
2019-02-03T02:50:28.507Z,2.00
2019-02-03T02:52:55.047Z,2.00
2019-02-03T02:55:22.030Z,2.00
2019-02-03T02:57:48.751Z,1.90
2019-02-03T03:00:17.710Z,1.90
2019-02-03T03:02:44.389Z,2.00
2019-02-03T03:05:10.898Z,2.00
2019-02-03T03:07:37.118Z,2.00
2019-02-03T03:10:05.748Z,2.00
2019-02-03T03:12:32.434Z,2.00
2019-02-03T03:14:58.657Z,1.90
2019-02-03T03:17:24.850Z,2.00
2019-02-03T03:19:51.082Z,2.10
2019-02-03T03:22:17.391Z,2.10
2019-02-03T03:24:43.602Z,2.10
2019-02-03T03:27:09.806Z,2.10
2019-02-03T03:29:36.031Z,2.00
2019-02-03T03:32:03.356Z,2.00
2019-02-03T03:34:29.571Z,2.10
2019-02-03T03:36:55.923Z,2.10
2019-02-03T03:39:22.437Z,2.10
2019-02-03T03:41:48.657Z,2.10
2019-02-03T03:44:14.874Z,2.00
2019-02-03T03:46:41.199Z,2.10
2019-02-03T03:49:07.795Z,2.00
2019-02-03T03:51:34.329Z,2.00
2019-02-03T03:54:00.631Z,2.10
2019-02-03T03:56:26.866Z,2.10
2019-02-03T03:58:53.074Z,2.20
2019-02-03T04:01:19.411Z,2.20
2019-02-03T04:03:45.695Z,2.20
2019-02-03T04:06:12.209Z,2.10
2019-02-03T04:08:45.353Z,2.10
2019-02-03T04:11:06.635Z,2.10
2019-02-03T04:13:32.863Z,2.20
2019-02-03T04:15:59.067Z,2.10
2019-02-03T04:18:25.582Z,2.20
2019-02-03T04:20:51.782Z,2.20
2019-02-03T04:23:18.398Z,2.30
2019-02-03T04:25:44.794Z,2.30
2019-02-03T04:28:11.110Z,2.30
2019-02-03T04:30:37.439Z,2.40
2019-02-03T04:33:03.682Z,2.30
2019-02-03T04:35:29.994Z,2.30
2019-02-03T04:37:56.295Z,2.30
2019-02-03T04:40:22.741Z,2.40
2019-02-03T04:42:49.434Z,2.40
2019-02-03T04:45:17.178Z,2.40
2019-02-03T04:47:43.842Z,2.40
2019-02-03T04:50:12.964Z,2.60
2019-02-03T04:52:39.175Z,2.40
2019-02-03T04:55:08.794Z,2.50
2019-02-03T04:57:35.402Z,2.50
2019-02-03T05:00:04.016Z,2.50
2019-02-03T05:02:30.322Z,2.50
2019-02-03T05:04:56.530Z,2.40
2019-02-03T05:07:22.754Z,2.40
2019-02-03T05:09:48.956Z,2.50
2019-02-03T05:12:15.169Z,2.50
2019-02-03T05:14:41.875Z,2.50
2019-02-03T05:17:08.203Z,2.60
2019-02-03T05:19:34.411Z,2.60
2019-02-03T05:22:00.630Z,2.50
2019-02-03T05:24:26.827Z,2.60
2019-02-03T05:26:53.055Z,2.70
2019-02-03T05:29:19.307Z,2.60
2019-02-03T05:31:45.588Z,2.60
2019-02-03T05:34:12.106Z,2.60
2019-02-03T05:36:38.306Z,2.60
2019-02-03T05:39:05.531Z,2.60
2019-02-03T05:41:31.732Z,2.60
2019-02-03T05:43:57.947Z,2.60
2019-02-03T05:46:24.147Z,2.70
2019-02-03T05:48:50.370Z,2.60
2019-02-03T05:51:17.074Z,2.60
2019-02-03T05:53:43.319Z,2.60
2019-02-03T05:56:09.616Z,2.50
2019-02-03T05:58:35.916Z,2.50
2019-02-03T06:01:02.538Z,2.60
2019-02-03T06:03:28.742Z,2.50
2019-02-03T06:05:54.963Z,2.40
2019-02-03T06:08:21.954Z,2.30
2019-02-03T06:10:48.280Z,2.40
2019-02-03T06:13:14.726Z,2.30
2019-02-03T06:15:41.048Z,2.20
2019-02-03T06:18:07.458Z,2.10
2019-02-03T06:20:33.678Z,2.10
2019-02-03T06:22:59.889Z,2.10
2019-02-03T06:25:26.197Z,2.00
2019-02-03T06:27:52.620Z,1.90
2019-02-03T06:30:22.649Z,1.80
2019-02-03T06:32:48.970Z,1.90
2019-02-03T06:35:15.174Z,1.90
2019-02-03T06:37:41.468Z,1.80
2019-02-03T06:40:09.499Z,1.80
2019-02-03T06:42:36.115Z,1.90
2019-02-03T06:45:06.547Z,1.90
2019-02-03T06:47:32.867Z,2.00
2019-02-03T06:49:59.057Z,1.90
2019-02-03T06:52:25.277Z,2.00
2019-02-03T06:54:51.502Z,2.00
2019-02-03T06:57:17.702Z,2.00
2019-02-03T06:59:50.942Z,2.00
2019-02-03T07:02:12.537Z,2.00
2019-02-03T07:04:44.697Z,2.10
2019-02-03T07:07:11.098Z,2.00
2019-02-03T07:09:37.314Z,2.00
2019-02-03T07:12:04.470Z,2.10
2019-02-03T07:14:30.684Z,2.10
2019-02-03T07:16:56.890Z,2.20
2019-02-03T07:19:23.327Z,2.30
2019-02-03T07:21:49.747Z,2.30
2019-02-03T07:24:16.066Z,2.30
2019-02-03T07:26:42.275Z,2.30
2019-02-03T07:29:08.518Z,2.10
2019-02-03T07:31:34.822Z,2.10
2019-02-03T07:34:01.342Z,2.10
2019-02-03T07:36:27.578Z,2.20
2019-02-03T07:38:54.055Z,2.20
2019-02-03T07:41:20.263Z,2.10
2019-02-03T07:43:46.554Z,2.20
2019-02-03T07:46:12.856Z,2.20
2019-02-03T07:48:39.298Z,2.30
2019-02-03T07:51:05.991Z,2.30
2019-02-03T07:53:32.443Z,2.30
2019-02-03T07:55:58.663Z,2.40
2019-02-03T07:58:24.971Z,2.30
2019-02-03T08:00:51.195Z,2.40
2019-02-03T08:03:17.706Z,2.50
2019-02-03T08:05:43.946Z,2.50
2019-02-03T08:08:10.150Z,2.50
2019-02-03T08:10:37.270Z,2.50
2019-02-03T08:13:03.581Z,2.60
2019-02-03T08:15:30.067Z,2.60
2019-02-03T08:17:56.262Z,2.60
2019-02-03T08:20:28.166Z,2.60
2019-02-03T08:22:54.679Z,2.60
2019-02-03T08:25:21.217Z,2.60
2019-02-03T08:27:49.174Z,2.70
2019-02-03T08:30:22.537Z,2.70
2019-02-03T08:32:48.846Z,2.70
2019-02-03T08:35:15.183Z,2.60
2019-02-03T08:37:41.498Z,2.70
2019-02-03T08:40:13.891Z,2.60
2019-02-03T08:42:40.207Z,2.70
2019-02-03T08:45:09.006Z,2.70
2019-02-03T08:47:35.229Z,2.70
2019-02-03T08:50:02.032Z,2.70
2019-02-03T08:52:28.351Z,2.70
2019-02-03T08:54:58.481Z,2.70
2019-02-03T08:57:22.859Z,2.60
2019-02-03T08:59:49.404Z,2.60
2019-02-03T09:02:15.618Z,2.60
2019-02-03T09:04:41.815Z,2.70
2019-02-03T09:07:08.034Z,2.60
2019-02-03T09:09:34.234Z,2.70
2019-02-03T09:12:00.460Z,2.70
2019-02-03T09:14:26.767Z,2.80
2019-02-03T09:16:53.386Z,2.80
2019-02-03T09:19:19.703Z,2.80
2019-02-03T09:21:45.925Z,2.90
2019-02-03T09:24:12.242Z,3.10
2019-02-03T09:26:38.459Z,3.20
2019-02-03T09:29:05.206Z,3.20
2019-02-03T09:31:31.763Z,3.20
2019-02-03T09:33:58.311Z,3.20
2019-02-03T09:36:24.600Z,3.20
2019-02-03T09:38:50.814Z,3.30
2019-02-03T09:41:17.322Z,3.30
2019-02-03T09:43:43.553Z,3.30
2019-02-03T09:46:09.871Z,3.30
2019-02-03T09:48:36.085Z,3.40
2019-02-03T09:51:02.393Z,3.50
2019-02-03T09:53:29.011Z,3.80
2019-02-03T09:55:55.239Z,3.90
2019-02-03T09:58:21.605Z,4.00
2019-02-03T10:00:47.919Z,4.20
2019-02-03T10:03:14.181Z,4.20
2019-02-03T10:05:40.402Z,4.20
2019-02-03T10:08:06.711Z,4.20
2019-02-03T10:10:40.321Z,4.00
2019-02-03T10:13:07.586Z,4.00
2019-02-03T10:15:33.867Z,4.00
2019-02-03T10:18:00.231Z,4.20
2019-02-03T10:20:26.754Z,4.40
2019-02-03T10:22:57.775Z,4.30
2019-02-03T10:25:26.828Z,4.20
2019-02-03T10:27:53.605Z,4.10
2019-02-03T10:30:21.118Z,4.00
2019-02-03T10:32:47.830Z,3.90
2019-02-03T10:35:23.541Z,3.90
2019-02-03T10:37:48.650Z,4.10
2019-02-03T10:40:17.869Z,4.20
2019-02-03T10:42:44.692Z,4.40
2019-02-03T10:45:14.216Z,4.40
2019-02-03T10:47:40.924Z,4.30
2019-02-03T10:50:13.723Z,4.20
2019-02-03T10:52:40.123Z,4.20
2019-02-03T10:55:07.586Z,4.20
2019-02-03T10:57:34.497Z,4.20
2019-02-03T11:00:01.098Z,4.30
2019-02-03T11:02:27.306Z,4.60
2019-02-03T11:04:53.527Z,4.80
2019-02-03T11:07:19.879Z,4.90
2019-02-03T11:09:46.093Z,4.80
2019-02-03T11:12:12.407Z,4.90
2019-02-03T11:14:38.726Z,4.80
2019-02-03T11:17:07.990Z,4.80
2019-02-03T11:19:34.211Z,4.90
2019-02-03T11:22:00.538Z,5.00
2019-02-03T11:24:26.981Z,5.00
2019-02-03T11:26:53.410Z,5.20
2019-02-03T11:29:19.719Z,5.20
2019-02-03T11:31:46.045Z,5.10
2019-02-03T11:34:12.354Z,5.10
2019-02-03T11:36:39.498Z,5.10
2019-02-03T11:39:06.202Z,5.30
2019-02-03T11:41:32.530Z,5.60
2019-02-03T11:43:58.833Z,5.70
2019-02-03T11:46:25.174Z,5.80
2019-02-03T11:48:51.478Z,5.90
2019-02-03T11:51:17.735Z,5.90
2019-02-03T11:53:44.457Z,6.00
2019-02-03T11:56:11.283Z,5.80
2019-02-03T11:58:37.531Z,5.80
2019-02-03T12:01:04.555Z,6.00
2019-02-03T12:03:30.770Z,6.00
2019-02-03T12:05:57.141Z,6.10
2019-02-03T12:08:26.065Z,5.90
2019-02-03T12:10:52.279Z,5.70
2019-02-03T12:13:18.804Z,5.80
2019-02-03T12:15:47.886Z,5.90
2019-02-03T12:18:13.234Z,6.00
2019-02-03T12:20:39.435Z,5.90
2019-02-03T12:23:05.750Z,6.00
2019-02-03T12:25:40.230Z,6.00
2019-02-03T12:28:06.958Z,5.90
2019-02-03T12:30:33.463Z,5.70
2019-02-03T12:33:01.083Z,5.70
2019-02-03T12:35:27.491Z,5.70
2019-02-03T12:37:53.914Z,5.70
2019-02-03T12:40:29.978Z,5.60
2019-02-03T12:42:56.311Z,5.70
2019-02-03T12:45:22.923Z,6.10
2019-02-03T12:47:51.135Z,6.10
2019-02-03T12:50:18.050Z,6.10
2019-02-03T12:52:45.253Z,6.00
2019-02-03T12:55:14.595Z,6.00
2019-02-03T12:57:41.190Z,6.10
2019-02-03T13:00:13.358Z,6.10
2019-02-03T13:02:39.834Z,6.30
2019-02-03T13:05:09.282Z,6.50
2019-02-03T13:07:35.708Z,6.70
2019-02-03T13:10:16.396Z,6.70
2019-02-03T13:12:33.936Z,6.80
2019-02-03T13:15:00.339Z,6.70
2019-02-03T13:17:26.821Z,6.80
2019-02-03T13:19:53.051Z,6.80
2019-02-03T13:22:19.354Z,6.80
2019-02-03T13:24:45.790Z,6.80
2019-02-03T13:27:12.090Z,6.80
2019-02-03T13:29:38.716Z,7.10
2019-02-03T13:32:10.919Z,7.20
2019-02-03T13:34:33.261Z,7.10
2019-02-03T13:36:59.682Z,7.00
2019-02-03T13:39:45.767Z,7.00
2019-02-03T13:42:12.366Z,7.00
2019-02-03T13:44:38.686Z,6.70
2019-02-03T13:47:05.022Z,6.30
2019-02-03T13:49:31.247Z,6.30
2019-02-03T13:51:57.444Z,6.30
2019-02-03T13:54:23.783Z,6.20
2019-02-03T13:56:50.091Z,6.10
2019-02-03T13:59:16.614Z,6.10
2019-02-03T14:01:42.823Z,6.10
2019-02-03T14:04:09.251Z,6.10
2019-02-03T14:06:35.810Z,6.20
2019-02-03T14:09:05.929Z,6.10
2019-02-03T14:11:32.130Z,6.10
2019-02-03T14:13:58.346Z,6.20
2019-02-03T14:16:24.546Z,6.10
2019-02-03T14:18:50.826Z,6.20
2019-02-03T14:21:17.030Z,6.20
2019-02-03T14:23:43.603Z,6.10
2019-02-03T14:26:10.078Z,6.10
2019-02-03T14:28:36.286Z,6.10
2019-02-03T14:31:02.606Z,6.20
2019-02-03T14:33:29.324Z,6.10
2019-02-03T14:35:55.567Z,6.10
2019-02-03T14:38:21.883Z,6.10
2019-02-03T14:40:48.242Z,6.10
2019-02-03T14:43:14.454Z,6.20
2019-02-03T14:45:40.887Z,6.10
2019-02-03T14:48:07.301Z,6.10
2019-02-03T14:50:34.115Z,6.10
2019-02-03T14:53:03.850Z,6.00
2019-02-03T14:55:33.073Z,6.20
2019-02-03T14:57:59.401Z,6.20
2019-02-03T15:00:31.122Z,6.20
2019-02-03T15:02:58.641Z,6.20
2019-02-03T15:05:25.259Z,6.20
2019-02-03T15:07:51.479Z,6.20
2019-02-03T15:10:17.786Z,6.30
2019-02-03T15:12:46.923Z,6.20
2019-02-03T15:15:19.862Z,6.00
2019-02-03T15:17:46.105Z,6.00
2019-02-03T15:20:15.913Z,5.90
2019-02-03T15:22:42.131Z,5.90
2019-02-03T15:25:08.435Z,5.80
2019-02-03T15:27:35.122Z,5.80
2019-02-03T15:30:01.841Z,5.70
2019-02-03T15:32:28.060Z,5.70
2019-02-03T15:34:54.270Z,5.70
2019-02-03T15:37:20.495Z,5.60
2019-02-03T15:39:46.702Z,5.60
2019-02-03T15:42:13.153Z,5.50
2019-02-03T15:44:39.353Z,5.50
2019-02-03T15:47:05.575Z,5.40
2019-02-03T15:49:31.887Z,5.40
2019-02-03T15:51:58.109Z,5.40
2019-02-03T15:54:24.914Z,5.40
2019-02-03T15:56:51.251Z,5.40
2019-02-03T15:59:17.446Z,5.50
2019-02-03T16:01:43.670Z,5.50
2019-02-03T16:04:09.875Z,5.50
2019-02-03T16:06:36.097Z,5.40
2019-02-03T16:09:03.913Z,5.30
2019-02-03T16:11:30.814Z,5.30
2019-02-03T16:13:57.022Z,5.40
2019-02-03T16:16:23.358Z,5.30
2019-02-03T16:18:49.678Z,5.30
2019-02-03T16:21:15.907Z,5.30
2019-02-03T16:23:42.111Z,5.30
2019-02-03T16:26:08.582Z,5.30
2019-02-03T16:28:34.803Z,5.30
2019-02-03T16:31:01.027Z,5.30
2019-02-03T16:33:27.277Z,5.20
2019-02-03T16:35:54.563Z,5.20
2019-02-03T16:38:22.976Z,5.10
2019-02-03T16:40:48.985Z,5.10
2019-02-03T16:43:15.630Z,5.10
2019-02-03T16:45:42.014Z,5.00
2019-02-03T16:48:08.443Z,5.10
2019-02-03T16:50:34.742Z,5.10
2019-02-03T16:53:10.024Z,5.10
2019-02-03T16:55:36.830Z,5.00
2019-02-03T16:58:03.966Z,5.00
2019-02-03T17:00:31.472Z,4.90
2019-02-03T17:03:00.867Z,5.00
2019-02-03T17:05:28.872Z,5.00
2019-02-03T17:07:56.397Z,4.90
2019-02-03T17:10:23.810Z,4.80
2019-02-03T17:12:50.135Z,4.80
2019-02-03T17:15:29.286Z,4.80
2019-02-03T17:17:56.345Z,4.80
2019-02-03T17:20:22.841Z,4.70
2019-02-03T17:22:49.048Z,4.70
2019-02-03T17:25:25.094Z,4.70
2019-02-03T17:27:51.610Z,4.70
2019-02-03T17:30:18.130Z,4.70
2019-02-03T17:32:44.656Z,4.60
2019-02-03T17:35:11.575Z,4.70
2019-02-03T17:37:38.092Z,4.70
2019-02-03T17:40:10.719Z,4.70
2019-02-03T17:42:45.687Z,4.50
2019-02-03T17:45:14.711Z,4.50
2019-02-03T17:47:41.515Z,4.40
2019-02-03T17:50:11.710Z,4.30
2019-02-03T17:52:39.170Z,4.20
2019-02-03T17:55:09.458Z,4.20
2019-02-03T17:57:35.666Z,4.10
2019-02-03T18:00:04.589Z,4.10
2019-02-03T18:02:33.839Z,4.10
2019-02-03T18:04:59.335Z,4.10
2019-02-03T18:07:25.538Z,4.10
2019-02-03T18:09:51.770Z,4.10
2019-02-03T18:12:18.205Z,4.00
2019-02-03T18:14:44.508Z,4.00
2019-02-03T18:17:10.830Z,4.00
2019-02-03T18:19:37.537Z,3.90
2019-02-03T18:22:04.271Z,3.90
2019-02-03T18:24:30.574Z,3.80
2019-02-03T18:26:56.807Z,3.90
2019-02-03T18:29:23.106Z,3.80
2019-02-03T18:31:49.322Z,3.80
2019-02-03T18:34:15.890Z,3.80
2019-02-03T18:36:42.117Z,3.70
2019-02-03T18:39:08.674Z,3.70
2019-02-03T18:41:35.088Z,3.60
2019-02-03T18:44:01.307Z,3.60
2019-02-03T18:46:27.747Z,3.60
2019-02-03T18:48:54.155Z,3.60
2019-02-03T18:51:20.879Z,3.50
2019-02-03T18:53:47.182Z,3.40
2019-02-03T18:56:13.890Z,3.50
2019-02-03T18:58:40.123Z,3.50
2019-02-03T19:01:06.834Z,3.50
2019-02-03T19:03:33.049Z,3.30
2019-02-03T19:05:59.258Z,3.30
2019-02-03T19:08:25.587Z,3.20
2019-02-03T19:10:51.798Z,3.10
2019-02-03T19:13:18.021Z,3.00
2019-02-03T19:15:44.226Z,2.90
2019-02-03T19:18:10.466Z,2.80
2019-02-03T19:20:41.602Z,2.70
2019-02-03T19:23:08.438Z,2.70
2019-02-03T19:25:34.642Z,2.70
2019-02-03T19:28:00.888Z,2.50
2019-02-03T19:30:49.081Z,2.50
2019-02-03T19:33:15.590Z,2.60
2019-02-03T19:35:41.799Z,2.60
2019-02-03T19:38:08.223Z,2.60
2019-02-03T19:40:34.685Z,2.70
2019-02-03T19:43:01.529Z,2.60
2019-02-03T19:45:29.238Z,2.70
2019-02-03T19:47:55.642Z,2.70
2019-02-03T19:50:25.071Z,2.70
2019-02-03T19:52:51.281Z,2.80
2019-02-03T19:55:17.605Z,2.70
2019-02-03T19:57:43.812Z,2.60
2019-02-03T20:00:19.356Z,2.50
2019-02-03T20:02:45.859Z,2.50
2019-02-03T20:05:12.291Z,2.40
2019-02-03T20:07:38.489Z,2.40
2019-02-03T20:10:08.511Z,2.30
2019-02-03T20:12:34.711Z,2.20
2019-02-03T20:15:09.525Z,2.10
2019-02-03T20:17:29.164Z,2.10
2019-02-03T20:19:55.447Z,2.00
2019-02-03T20:22:21.791Z,2.00
2019-02-03T20:24:48.015Z,1.90
2019-02-03T20:27:14.229Z,1.80
2019-02-03T20:29:40.444Z,1.70
2019-02-03T20:32:06.863Z,1.70
2019-02-03T20:34:33.379Z,1.60
2019-02-03T20:36:59.690Z,1.60
2019-02-03T20:39:26.019Z,1.50
2019-02-03T20:41:52.233Z,1.50
2019-02-03T20:44:18.473Z,1.60
2019-02-03T20:46:44.679Z,1.70
2019-02-03T20:49:10.918Z,1.70
2019-02-03T20:51:37.189Z,1.70
2019-02-03T20:54:03.867Z,1.70
2019-02-03T20:56:30.084Z,1.80
2019-02-03T20:58:57.417Z,1.90
2019-02-03T21:01:23.915Z,2.00
2019-02-03T21:03:50.114Z,2.00
2019-02-03T21:06:16.334Z,1.90
2019-02-03T21:08:42.526Z,2.00
2019-02-03T21:11:08.810Z,1.80
2019-02-03T21:13:35.107Z,1.80
2019-02-03T21:16:01.410Z,1.70
2019-02-03T21:18:27.655Z,1.60
2019-02-03T21:20:53.974Z,1.60
2019-02-03T21:23:22.091Z,1.60
2019-02-03T21:25:48.338Z,1.60
2019-02-03T21:28:14.574Z,1.60
2019-02-03T21:30:41.278Z,1.50
2019-02-03T21:33:07.608Z,1.50
2019-02-03T21:35:34.106Z,1.40
2019-02-03T21:38:00.482Z,1.40
2019-02-03T21:40:28.914Z,1.20
2019-02-03T21:42:55.143Z,1.20
2019-02-03T21:45:22.150Z,1.20
2019-02-03T21:47:48.975Z,1.30
2019-02-03T21:50:18.285Z,1.30
2019-02-03T21:52:49.490Z,1.20
2019-02-03T21:55:17.718Z,1.20
2019-02-03T21:57:50.377Z,1.10
2019-02-03T22:00:24.586Z,1.10
2019-02-03T22:02:50.943Z,1.10
2019-02-03T22:05:17.138Z,1.00
2019-02-03T22:07:43.363Z,1.00
2019-02-03T22:10:15.318Z,0.90
2019-02-03T22:12:41.735Z,0.90
2019-02-03T22:15:08.431Z,0.80
2019-02-03T22:17:34.984Z,0.80
2019-02-03T22:20:03.507Z,0.80
2019-02-03T22:22:29.807Z,0.70
2019-02-03T22:24:56.035Z,0.70
2019-02-03T22:27:22.238Z,0.80
2019-02-03T22:29:48.465Z,0.80
2019-02-03T22:32:14.766Z,0.80
2019-02-03T22:34:41.286Z,0.90
2019-02-03T22:37:07.486Z,0.80
2019-02-03T22:39:33.810Z,0.80
2019-02-03T22:42:00.018Z,0.70
2019-02-03T22:44:26.443Z,0.70
2019-02-03T22:46:52.755Z,0.70
2019-02-03T22:49:18.962Z,0.80
2019-02-03T22:51:45.583Z,0.70
2019-02-03T22:54:11.781Z,0.80
2019-02-03T22:56:37.999Z,0.80
2019-02-03T22:59:04.299Z,0.80
2019-02-03T23:01:31.102Z,0.70
2019-02-03T23:03:57.306Z,0.70
2019-02-03T23:06:23.630Z,0.70
2019-02-03T23:08:49.834Z,0.70
2019-02-03T23:11:16.054Z,0.70
2019-02-03T23:13:42.260Z,0.70
2019-02-03T23:16:18.048Z,0.70
2019-02-03T23:18:37.354Z,0.70
2019-02-03T23:21:03.994Z,0.80
2019-02-03T23:23:30.322Z,0.80
2019-02-03T23:25:56.536Z,0.90
2019-02-03T23:28:23.153Z,1.00
2019-02-03T23:30:49.363Z,1.10
2019-02-03T23:33:15.681Z,1.10
2019-02-03T23:35:41.891Z,1.10
2019-02-03T23:38:08.309Z,1.10
2019-02-03T23:40:34.510Z,1.10
2019-02-03T23:43:00.961Z,1.10
2019-02-03T23:45:27.358Z,1.10
2019-02-03T23:47:53.573Z,1.10
2019-02-03T23:50:20.678Z,1.00
2019-02-03T23:52:46.907Z,1.00
2019-02-03T23:55:13.422Z,1.00
2019-02-03T23:57:40.039Z,1.00
